createdAt,value
2018-12-13T00:00:47.858Z,1.36
2018-12-13T00:03:20.490Z,1.36
2018-12-13T00:05:53.535Z,1.30
2018-12-13T00:08:26.194Z,1.15
2018-12-13T00:10:58.947Z,1.15
2018-12-13T00:13:31.743Z,1.23
2018-12-13T00:16:02.529Z,1.31
2018-12-13T00:18:35.511Z,1.40
2018-12-13T00:21:12.621Z,1.48
2018-12-13T00:23:45.434Z,1.55
2018-12-13T00:27:04.565Z,1.60
2018-12-13T00:29:40.787Z,1.64
2018-12-13T00:32:26.708Z,1.69
2018-12-13T00:34:59.150Z,1.77
2018-12-13T00:37:28.047Z,1.81
2018-12-13T00:40:00.639Z,1.83
2018-12-13T00:42:37.239Z,1.84
2018-12-13T00:45:13.355Z,1.87
2018-12-13T00:47:45.930Z,1.92
2018-12-13T00:50:18.882Z,1.93
2018-12-13T00:52:55.832Z,1.95
2018-12-13T00:55:32.770Z,2.01
2018-12-13T00:58:05.301Z,2.02
2018-12-13T01:00:38.439Z,2.04
2018-12-13T01:03:07.543Z,2.02
2018-12-13T01:05:38.521Z,1.99
2018-12-13T01:08:15.421Z,1.98
2018-12-13T01:10:48.511Z,1.91
2018-12-13T01:13:25.763Z,1.85
2018-12-13T01:16:02.692Z,1.78
2018-12-13T01:18:35.572Z,1.70
2018-12-13T01:21:08.545Z,1.68
2018-12-13T01:23:41.365Z,1.70
2018-12-13T01:26:18.431Z,1.67
2018-12-13T01:28:50.986Z,1.59
2018-12-13T01:31:24.543Z,1.50
2018-12-13T01:33:56.978Z,1.41
2018-12-13T01:36:30.051Z,1.26
2018-12-13T01:39:02.685Z,1.14
2018-12-13T01:41:35.558Z,1.03
2018-12-13T01:44:21.206Z,0.88
2018-12-13T01:46:57.988Z,0.76
2018-12-13T01:49:37.213Z,0.77
2018-12-13T01:52:19.966Z,0.78
2018-12-13T01:54:52.927Z,0.79
2018-12-13T01:57:29.445Z,0.74
2018-12-13T02:00:20.063Z,0.57
2018-12-13T02:03:23.259Z,0.28
2018-12-13T02:06:04.710Z,-0.08
2018-12-13T02:09:20.619Z,-0.34
2018-12-13T02:11:56.739Z,-0.58
2018-12-13T02:14:29.423Z,-0.72
2018-12-13T02:20:29.894Z,-0.91
2018-12-13T02:23:05.120Z,-0.99
2018-12-13T02:25:42.388Z,-0.98
2018-12-13T02:28:15.456Z,-0.98
2018-12-13T02:30:58.957Z,-0.99
2018-12-13T02:33:35.547Z,-1.08
2018-12-13T02:36:08.323Z,-1.15
2018-12-13T02:38:41.085Z,-1.23
2018-12-13T02:41:14.016Z,-1.29
2018-12-13T02:43:46.931Z,-1.28
2018-12-13T02:46:19.844Z,-1.28
2018-12-13T02:49:06.353Z,-1.27
2018-12-13T02:51:38.518Z,-1.28
2018-12-13T02:54:09.551Z,-1.32
2018-12-13T02:56:46.579Z,-1.33
2018-12-13T02:59:23.535Z,-1.33
2018-12-13T03:01:56.503Z,-1.22
2018-12-13T03:04:29.382Z,-1.14
2018-12-13T03:07:13.800Z,-1.12
2018-12-13T03:09:41.698Z,-1.14
2018-12-13T03:12:14.668Z,-1.19
2018-12-13T03:15:37.187Z,-1.29
2018-12-13T03:18:09.663Z,-1.38
2018-12-13T03:20:46.318Z,-1.26
2018-12-13T03:23:19.137Z,-1.13
2018-12-13T03:29:12.646Z,-0.93
2018-12-13T03:31:49.628Z,-0.87
2018-12-13T03:34:22.438Z,-0.88
2018-12-13T03:36:55.035Z,-0.87
2018-12-13T03:39:32.291Z,-0.88
2018-12-13T03:42:05.351Z,-0.76
2018-12-13T03:44:42.282Z,-0.66
2018-12-13T03:47:13.174Z,-0.62
2018-12-13T03:49:42.243Z,-0.59
2018-12-13T03:52:32.350Z,-0.52
2018-12-13T03:55:04.553Z,-0.46
2018-12-13T03:57:37.492Z,-0.37
2018-12-13T04:00:10.747Z,-0.32
2018-12-13T04:02:41.062Z,-0.39
2018-12-13T04:05:14.030Z,-0.43
2018-12-13T04:07:50.762Z,-0.51
2018-12-13T04:10:41.050Z,-0.60
2018-12-13T04:13:17.849Z,-0.60
2018-12-13T04:15:54.990Z,-0.58
2018-12-13T04:18:31.669Z,-0.63
2018-12-13T04:21:04.535Z,-0.63
2018-12-13T04:23:40.675Z,-0.61
2018-12-13T04:26:11.504Z,-0.63
2018-12-13T04:28:44.321Z,-0.68
2018-12-13T04:31:17.155Z,-0.77
2018-12-13T04:33:53.435Z,-0.81
2018-12-13T04:36:30.255Z,-0.81
2018-12-13T04:39:04.715Z,-0.74
2018-12-13T04:41:41.241Z,-0.81
2018-12-13T04:44:14.163Z,-0.95
2018-12-13T04:46:50.987Z,-0.93
2018-12-13T04:49:23.212Z,-0.88
2018-12-13T04:51:55.444Z,-0.92
2018-12-13T04:54:32.512Z,-0.92
2018-12-13T04:57:09.744Z,-0.94
2018-12-13T04:59:42.516Z,-0.95
2018-12-13T05:02:15.494Z,-0.92
2018-12-13T05:04:48.493Z,-0.91
2018-12-13T05:07:25.481Z,-0.94
2018-12-13T05:10:02.461Z,-1.00
2018-12-13T05:12:35.341Z,-1.07
2018-12-13T05:15:12.257Z,-0.98
2018-12-13T05:17:44.531Z,-0.99
2018-12-13T05:20:17.358Z,-1.02
2018-12-13T05:22:50.435Z,-1.07
2018-12-13T05:25:27.293Z,-1.16
2018-12-13T05:28:04.350Z,-1.26
2018-12-13T05:30:37.271Z,-1.31
2018-12-13T05:33:10.464Z,-1.37
2018-12-13T05:35:43.367Z,-1.44
2018-12-13T05:38:19.492Z,-1.54
2018-12-13T05:40:52.503Z,-1.67
2018-12-13T05:43:25.963Z,-1.72
2018-12-13T05:45:56.439Z,-1.66
2018-12-13T05:48:33.167Z,-1.65
2018-12-13T05:51:06.257Z,-1.76
2018-12-13T05:53:39.391Z,-1.86
2018-12-13T05:59:51.580Z,-2.07
2018-12-13T06:02:24.613Z,-2.19
2018-12-13T06:05:00.835Z,-2.22
2018-12-13T06:07:37.499Z,-1.94
2018-12-13T06:10:10.442Z,-1.65
2018-12-13T06:12:47.271Z,-1.51
2018-12-13T06:15:20.324Z,-1.37
2018-12-13T06:17:53.221Z,-1.29
2018-12-13T06:20:26.498Z,-1.24
2018-12-13T06:22:59.438Z,-1.22
2018-12-13T06:25:36.327Z,-1.20
2018-12-13T06:28:07.405Z,-1.23
2018-12-13T06:30:40.182Z,-1.25
2018-12-13T06:33:12.966Z,-1.31
2018-12-13T06:35:45.827Z,-1.37
2018-12-13T06:38:18.619Z,-1.42
2018-12-13T06:40:51.405Z,-1.40
2018-12-13T06:43:28.499Z,-1.37
2018-12-13T06:46:01.367Z,-1.47
2018-12-13T06:48:32.439Z,-1.57
2018-12-13T06:51:05.439Z,-1.68
2018-12-13T06:53:38.462Z,-1.81
2018-12-13T06:56:11.575Z,-1.95
2018-12-13T06:58:44.355Z,-1.85
2018-12-13T07:01:17.579Z,-1.74
2018-12-13T07:03:48.558Z,-1.78
2018-12-13T07:06:21.669Z,-1.90
2018-12-13T07:08:54.515Z,-2.06
2018-12-13T07:11:27.583Z,-2.17
2018-12-13T07:13:58.583Z,-2.26
2018-12-13T07:16:35.568Z,-2.32
2018-12-13T07:19:08.269Z,-2.40
2018-12-13T07:21:45.251Z,-2.46
2018-12-13T07:24:18.022Z,-2.52
2018-12-13T07:26:51.182Z,-2.59
2018-12-13T07:29:24.055Z,-2.63
2018-12-13T07:31:56.218Z,-2.68
2018-12-13T07:34:32.444Z,-2.69
2018-12-13T07:37:05.515Z,-2.69
2018-12-13T07:39:38.139Z,-2.65
2018-12-13T07:42:14.860Z,-2.56
2018-12-13T07:44:47.917Z,-2.42
2018-12-13T07:47:20.851Z,-2.24
2018-12-13T07:49:57.074Z,-2.10
2018-12-13T07:52:30.207Z,-1.99
2018-12-13T07:55:02.983Z,-1.76
2018-12-13T07:57:36.055Z,-1.48
2018-12-13T08:00:13.207Z,-1.24
2018-12-13T08:02:45.932Z,-1.04
2018-12-13T08:05:36.129Z,-0.90
2018-12-13T08:08:12.451Z,-0.80
2018-12-13T08:10:50.137Z,-0.74
2018-12-13T08:13:49.632Z,-0.67
2018-12-13T08:16:23.599Z,-0.55
2018-12-13T08:18:56.112Z,-0.43
2018-12-13T08:21:29.421Z,-0.28
2018-12-13T08:24:02.519Z,-0.14
2018-12-13T08:26:34.858Z,-0.02
2018-12-13T08:29:07.765Z,0.10
2018-12-13T08:31:40.606Z,0.19
2018-12-13T08:34:11.939Z,0.25
2018-12-13T08:36:44.862Z,0.30
2018-12-13T08:39:17.896Z,0.35
2018-12-13T08:41:50.796Z,0.42
2018-12-13T08:44:23.900Z,0.50
2018-12-13T08:46:56.815Z,0.54
2018-12-13T08:49:31.869Z,0.57
2018-12-13T08:52:05.047Z,0.57
2018-12-13T08:54:38.059Z,0.55
2018-12-13T08:57:11.187Z,0.54
2018-12-13T08:59:43.523Z,0.53
2018-12-13T09:02:16.651Z,0.56
2018-12-13T09:04:53.615Z,0.59
2018-12-13T09:07:26.573Z,0.67
2018-12-13T09:32:53.647Z,1.58
2018-12-13T09:35:26.342Z,1.53
2018-12-13T09:38:02.803Z,1.65
2018-12-13T09:40:39.330Z,1.76
2018-12-13T09:43:11.820Z,1.81
2018-12-13T09:45:44.431Z,1.91
2018-12-13T09:48:17.510Z,1.92
2018-12-13T09:50:50.927Z,1.95
2018-12-13T09:53:27.792Z,2.13
2018-12-13T09:56:01.042Z,2.24
2018-12-13T09:58:33.906Z,2.38
2018-12-13T10:01:06.999Z,2.50
2018-12-13T10:03:43.824Z,2.62
2018-12-13T10:06:16.917Z,2.69
2018-12-13T10:08:49.178Z,2.77
2018-12-13T10:11:21.948Z,2.89
2018-12-13T10:13:54.943Z,3.10
2018-12-13T10:16:27.523Z,3.13
2018-12-13T10:19:05.779Z,3.23
2018-12-13T10:21:38.516Z,3.37
2018-12-13T10:24:10.784Z,3.40
2018-12-13T10:26:43.856Z,3.48
2018-12-13T10:29:16.639Z,3.62
2018-12-13T10:31:49.677Z,3.68
2018-12-13T10:36:53.834Z,3.83
2018-12-13T10:39:27.654Z,3.59
2018-12-13T10:42:00.504Z,3.80
2018-12-13T10:44:36.599Z,3.97
2018-12-13T10:47:12.839Z,3.63
2018-12-13T10:49:46.058Z,3.98
2018-12-13T10:52:20.126Z,4.18
2018-12-13T10:54:53.139Z,4.39
2018-12-13T10:57:26.296Z,4.60
2018-12-13T11:00:00.305Z,4.53
2018-12-13T11:02:45.550Z,4.45
2018-12-13T11:05:18.419Z,4.52
2018-12-13T11:07:55.783Z,4.60
2018-12-13T11:10:28.731Z,4.60
2018-12-13T11:13:05.316Z,4.39
2018-12-13T11:15:37.602Z,4.23
2018-12-13T11:18:13.082Z,4.25
2018-12-13T11:20:47.155Z,3.88
2018-12-13T11:23:20.049Z,3.93
2018-12-13T11:25:57.055Z,4.00
2018-12-13T11:28:48.564Z,3.94
2018-12-13T11:31:25.043Z,4.19
2018-12-13T11:34:02.354Z,4.14
2018-12-13T11:36:34.875Z,4.18
2018-12-13T11:39:07.735Z,4.41
2018-12-13T11:51:45.234Z,4.75
2018-12-13T11:54:40.100Z,4.79
2018-12-13T11:57:12.643Z,4.74
2018-12-13T11:59:46.277Z,4.95
2018-12-13T12:02:24.033Z,4.91
2018-12-13T12:04:57.937Z,4.75
2018-12-13T12:07:30.924Z,4.90
2018-12-13T12:10:01.882Z,5.06
2018-12-13T12:12:34.967Z,5.31
2018-12-13T12:15:08.390Z,5.39
2018-12-13T12:17:41.116Z,5.78
2018-12-13T12:20:13.442Z,5.91
2018-12-13T12:22:46.687Z,5.71
2018-12-13T12:25:19.798Z,5.38
2018-12-13T12:27:52.464Z,5.25
2018-12-13T12:30:25.621Z,5.12
2018-12-13T12:32:58.380Z,5.07
2018-12-13T12:35:31.468Z,5.04
2018-12-13T12:38:03.651Z,5.08
2018-12-13T12:40:37.119Z,5.00
2018-12-13T12:43:13.987Z,4.93
2018-12-13T12:45:46.915Z,5.25
2018-12-13T12:48:20.003Z,5.27
2018-12-13T12:50:52.360Z,5.18
2018-12-13T13:03:32.310Z,4.91
2018-12-13T13:06:05.220Z,4.87
2018-12-13T13:08:42.425Z,4.66
2018-12-13T13:11:15.676Z,4.72
2018-12-13T13:13:48.410Z,4.68
2018-12-13T13:16:21.567Z,4.58
2018-12-13T13:18:53.878Z,4.54
2018-12-13T13:21:28.779Z,4.38
2018-12-13T13:24:01.424Z,4.34
2018-12-13T13:26:38.519Z,4.27
2018-12-13T13:29:11.795Z,4.18
2018-12-13T13:31:45.511Z,4.12
2018-12-13T13:34:18.722Z,4.13
2018-12-13T13:36:51.668Z,4.09
2018-12-13T13:39:23.883Z,4.24
2018-12-13T13:41:58.232Z,4.16
2018-12-13T13:44:37.554Z,4.06
2018-12-13T13:47:10.204Z,3.97
2018-12-13T13:49:42.422Z,4.03
2018-12-13T13:52:15.689Z,4.02
2018-12-13T13:54:48.806Z,3.98
2018-12-13T13:57:21.850Z,3.80
2018-12-13T13:59:54.687Z,3.75
2018-12-13T14:02:27.642Z,3.69
2018-12-13T14:05:00.616Z,3.63
2018-12-13T14:07:32.779Z,3.63
2018-12-13T14:10:05.354Z,3.63
2018-12-13T14:12:39.483Z,3.59
2018-12-13T14:15:12.591Z,3.51
2018-12-13T14:17:45.608Z,3.44
2018-12-13T14:20:17.886Z,3.44
2018-12-13T14:22:51.183Z,3.38
2018-12-13T14:25:24.039Z,3.35
2018-12-13T14:27:57.067Z,3.33
2018-12-13T14:30:29.286Z,3.33
2018-12-13T14:33:01.579Z,3.23
2018-12-13T14:35:34.780Z,3.22
2018-12-13T14:38:07.711Z,3.16
2018-12-13T14:40:40.726Z,3.19
2018-12-13T14:43:13.800Z,3.16
2018-12-13T14:45:46.903Z,3.18
2018-12-13T14:48:23.886Z,3.12
2018-12-13T14:51:00.289Z,3.08
2018-12-13T14:53:32.734Z,3.03
2018-12-13T14:56:05.752Z,3.00
2018-12-13T14:58:38.636Z,3.00
2018-12-13T15:01:12.039Z,2.97
2018-12-13T15:03:44.968Z,2.88
2018-12-13T15:13:52.055Z,2.75
2018-12-13T15:16:24.851Z,2.70
2018-12-13T15:19:01.078Z,2.67
2018-12-13T15:21:39.270Z,2.65
2018-12-13T15:24:12.283Z,2.65
2018-12-13T15:26:45.308Z,2.62
2018-12-13T15:29:18.007Z,2.56
2018-12-13T15:31:59.310Z,2.56
2018-12-13T15:34:30.507Z,2.61
2018-12-13T15:37:04.666Z,2.63
2018-12-13T15:39:37.540Z,2.59
2018-12-13T15:42:10.594Z,2.61
2018-12-13T15:44:46.423Z,2.58
2018-12-13T15:47:21.809Z,2.57
2018-12-13T15:49:55.200Z,2.57
2018-12-13T15:52:29.507Z,2.55
2018-12-13T15:55:00.720Z,2.52
2018-12-13T15:57:37.744Z,2.51
2018-12-13T16:00:11.699Z,2.48
2018-12-13T16:02:51.898Z,2.49
2018-12-13T16:05:24.841Z,2.51
2018-12-13T16:08:02.460Z,2.49
2018-12-13T16:10:37.583Z,2.62
2018-12-13T16:13:10.847Z,2.56
2018-12-13T16:15:52.519Z,2.58
2018-12-13T16:18:25.119Z,2.55
2018-12-13T16:20:58.039Z,2.60
2018-12-13T16:23:30.979Z,2.62
2018-12-13T16:26:07.899Z,2.54
2018-12-13T16:28:40.848Z,2.52
2018-12-13T16:31:17.621Z,2.49
2018-12-13T16:33:50.703Z,2.54
2018-12-13T16:36:23.442Z,2.57
2018-12-13T16:38:56.479Z,2.48
2018-12-13T16:41:29.759Z,2.54
2018-12-13T16:44:02.774Z,2.51
2018-12-13T16:46:39.876Z,2.60
2018-12-13T16:49:10.703Z,2.52
2018-12-13T16:51:44.375Z,2.51
2018-12-13T16:54:21.173Z,2.52
2018-12-13T16:56:54.615Z,2.46
2018-12-13T16:59:25.477Z,2.45
2018-12-13T17:02:02.355Z,2.49
2018-12-13T17:04:38.982Z,2.52
2018-12-13T17:07:11.994Z,2.50
2018-12-13T17:09:45.075Z,2.55
2018-12-13T17:12:18.057Z,2.51
2018-12-13T17:14:51.525Z,2.47
2018-12-13T17:17:24.467Z,2.46
2018-12-13T17:20:01.803Z,2.47
2018-12-13T17:22:36.344Z,2.47
2018-12-13T17:25:13.219Z,2.43
2018-12-13T17:27:50.159Z,2.42
2018-12-13T17:30:23.204Z,2.40
2018-12-13T17:32:55.162Z,2.39
2018-12-13T17:35:28.462Z,2.41
2018-12-13T17:38:05.350Z,2.43
2018-12-13T17:40:38.403Z,2.43
2018-12-13T17:43:11.343Z,2.42
2018-12-13T17:45:48.173Z,2.44
2018-12-13T17:48:25.051Z,2.43
2018-12-13T17:50:58.702Z,2.40
2018-12-13T17:53:37.124Z,2.40
2018-12-13T17:56:10.112Z,2.39
2018-12-13T17:58:43.195Z,2.42
2018-12-13T18:01:16.427Z,2.44
2018-12-13T18:03:48.588Z,2.34
2018-12-13T18:06:21.803Z,2.28
2018-12-13T18:08:54.719Z,2.29
2018-12-13T18:11:31.854Z,2.29
2018-12-13T18:14:08.682Z,2.26
2018-12-13T18:16:43.502Z,2.29
2018-12-13T18:19:16.731Z,2.35
2018-12-13T18:21:49.802Z,2.29
2018-12-13T18:24:24.163Z,2.24
2018-12-13T18:27:01.868Z,2.24
2018-12-13T18:29:38.735Z,2.26
2018-12-13T18:32:11.846Z,2.23
2018-12-13T18:34:49.304Z,2.26
2018-12-13T18:37:19.390Z,2.21
2018-12-13T18:39:48.966Z,2.21
2018-12-13T18:42:18.482Z,2.19
2018-12-13T18:44:48.884Z,2.16
2018-12-13T18:47:18.403Z,2.13
2018-12-13T18:49:48.036Z,2.10
2018-12-13T18:52:17.543Z,2.10
2018-12-13T18:54:47.153Z,2.08
2018-12-13T18:57:17.119Z,2.13
2018-12-13T18:59:46.591Z,2.11
2018-12-13T19:02:16.107Z,2.08
2018-12-13T19:04:45.578Z,2.05
2018-12-13T19:07:15.200Z,2.06
2018-12-13T19:09:44.710Z,2.06
2018-12-13T19:12:14.314Z,1.98
2018-12-13T19:14:44.011Z,1.93
2018-12-13T19:17:13.579Z,1.94
2018-12-13T19:19:43.240Z,2.00
2018-12-13T19:22:12.737Z,2.02
2018-12-13T19:24:42.427Z,2.06
2018-12-13T19:27:11.899Z,2.05
2018-12-13T19:29:41.897Z,2.05
2018-12-13T19:32:11.477Z,1.93
2018-12-13T19:34:41.161Z,1.70
2018-12-13T19:37:10.699Z,1.45
2018-12-13T19:39:40.403Z,1.25
2018-12-13T19:42:09.991Z,1.09
2018-12-13T19:44:39.701Z,1.06
2018-12-13T19:47:09.286Z,1.02
2018-12-13T19:49:38.999Z,0.96
2018-12-13T19:52:08.624Z,0.91
2018-12-13T19:54:38.271Z,0.91
2018-12-13T19:57:07.713Z,0.91
2018-12-13T19:59:38.726Z,0.94
2018-12-13T20:02:08.463Z,0.94
2018-12-13T20:04:38.147Z,0.88
2018-12-13T20:07:07.691Z,0.82
2018-12-13T20:09:38.627Z,0.76
2018-12-13T20:12:08.226Z,0.81
2018-12-13T20:14:37.838Z,0.94
2018-12-13T20:17:07.977Z,1.06
2018-12-13T20:19:37.638Z,1.19
2018-12-13T20:22:07.139Z,1.31
2018-12-13T20:24:37.347Z,1.36
2018-12-13T20:27:06.941Z,1.39
2018-12-13T20:29:36.843Z,1.42
2018-12-13T20:32:06.401Z,1.46
2018-12-13T20:34:35.932Z,1.53
2018-12-13T20:37:05.522Z,1.60
2018-12-13T20:39:35.429Z,1.64
2018-12-13T20:42:04.943Z,1.65
2018-12-13T20:44:34.392Z,1.66
2018-12-13T20:47:03.935Z,1.70
2018-12-13T20:49:34.413Z,1.84
2018-12-13T20:52:03.967Z,1.85
2018-12-13T20:54:33.582Z,1.84
2018-12-13T20:57:03.223Z,1.84
2018-12-13T20:59:32.686Z,1.85
2018-12-13T21:02:02.318Z,1.81
2018-12-13T21:04:31.829Z,1.82
2018-12-13T21:07:06.571Z,1.81
2018-12-13T21:09:36.015Z,1.82
2018-12-13T21:12:05.691Z,1.81
2018-12-13T21:14:35.293Z,1.84
2018-12-13T21:17:04.823Z,1.85
2018-12-13T21:19:34.395Z,1.85
2018-12-13T21:22:03.984Z,1.84
2018-12-13T21:24:33.603Z,1.84
2018-12-13T21:27:03.633Z,1.79
2018-12-13T21:29:33.193Z,1.84
2018-12-13T21:32:02.722Z,1.79
2018-12-13T21:34:32.137Z,1.81
2018-12-13T21:37:02.767Z,1.71
2018-12-13T21:39:32.259Z,1.65
2018-12-13T21:42:01.955Z,1.63
2018-12-13T21:44:31.415Z,1.57
2018-12-13T21:47:00.934Z,1.50
2018-12-13T21:49:30.347Z,1.46
2018-12-13T21:51:59.831Z,1.40
2018-12-13T21:54:29.299Z,1.40
2018-12-13T21:56:58.855Z,1.33
2018-12-13T21:59:28.195Z,1.22
2018-12-13T22:01:57.533Z,1.11
2018-12-13T22:04:26.727Z,1.02
2018-12-13T22:06:55.947Z,0.88
2018-12-13T22:09:25.191Z,0.71
2018-12-13T22:11:54.352Z,0.53
2018-12-13T22:14:24.643Z,0.38
2018-12-13T22:16:53.712Z,0.28
2018-12-13T22:19:22.811Z,0.16
2018-12-13T22:21:51.947Z,0.05
2018-12-13T22:24:21.335Z,-0.02
2018-12-13T22:26:50.498Z,-0.01
2018-12-13T22:29:19.633Z,-0.07
2018-12-13T22:31:48.712Z,-0.16
2018-12-13T22:34:17.915Z,-0.26
2018-12-13T22:36:47.193Z,-0.24
2018-12-13T22:39:16.615Z,-0.20
2018-12-13T22:41:45.827Z,-0.25
2018-12-13T22:44:15.106Z,-0.28
2018-12-13T22:46:44.347Z,-0.27
2018-12-13T22:49:13.592Z,-0.22
2018-12-13T22:51:42.648Z,-0.25
2018-12-13T22:54:11.815Z,-0.37
2018-12-13T22:56:40.934Z,-0.42
2018-12-13T22:59:10.151Z,-0.40
2018-12-13T23:01:39.333Z,-0.38
2018-12-13T23:04:08.327Z,-0.29
2018-12-13T23:06:37.582Z,-0.15
2018-12-13T23:09:08.115Z,-0.03
2018-12-13T23:11:37.223Z,0.09
2018-12-13T23:14:06.534Z,0.16
2018-12-13T23:16:35.699Z,0.23
2018-12-13T23:19:04.731Z,0.34
2018-12-13T23:21:34.059Z,0.45
2018-12-13T23:24:03.241Z,0.55
2018-12-13T23:26:32.340Z,0.60
2018-12-13T23:29:01.459Z,0.63
2018-12-13T23:31:30.461Z,0.62
2018-12-13T23:33:59.664Z,0.58
2018-12-13T23:36:28.776Z,0.54
2018-12-13T23:38:57.767Z,0.51
2018-12-13T23:41:26.742Z,0.49
2018-12-13T23:43:55.826Z,0.46
2018-12-13T23:46:24.913Z,0.38
2018-12-13T23:48:53.996Z,0.25
2018-12-13T23:51:23.029Z,0.12
2018-12-13T23:53:52.278Z,0.00
2018-12-13T23:56:21.522Z,-0.12
2018-12-13T23:58:50.919Z,-0.21
